Time;durP1;ratioP1;P1;durP2;ratioP2;P2;SDS_P1;SDS_P2;PMS_P1;PMS_P2;Temp;Humidity;BMP_temperature;BMP_pressure;BME280_temperature;BME280_humidity;BME280_pressure;Samples;Min_cycle;Max_cycle;Signal;HPM_P1;HPM_P2
2024/04/06 00:04:18;;;;;;;;;;;;;;;21.06;46.66;95763.88;10457505;28;2550;-58
2024/04/06 00:09:18;;;;;;;;;;;;;;;21.05;46.58;95764.94;10473885;28;2918;-59
2024/04/06 00:14:18;;;;;;;;;;;;;;;21.05;46.34;95741.22;10457590;28;2781;-60
2024/04/06 00:19:19;;;;;;;;;;;;;;;21.04;46.40;95744.16;10474462;28;3013;-60
2024/04/06 00:24:19;;;;;;;;;;;;;;;21.04;46.49;95744.91;10477781;28;2577;-60
2024/04/06 00:29:19;;;;;;;;;;;;;;;21.03;46.69;95742.56;10462304;28;2581;-59
2024/04/06 00:34:19;;;;;;;;;;;;;;;21.02;46.49;95739.13;10455053;28;2809;-58
2024/04/06 00:39:20;;;;;;;;;;;;;;;21.01;46.67;95734.91;10479410;28;2553;-58
2024/04/06 00:44:22;;;;;;;;;;;;;;;21.01;46.63;95729.63;10460324;28;2842;-58
2024/04/06 00:49:23;;;;;;;;;;;;;;;21.01;46.53;95742.81;10478906;28;2794;-58
2024/04/06 00:54:23;;;;;;;;;;;;;;;21.01;46.34;95749.94;10472734;28;2845;-58
2024/04/06 00:59:24;;;;;;;;;;;;;;;21.01;46.30;95757.84;10468423;28;2766;-58
2024/04/06 01:04:24;;;;;;;;;;;;;;;21.00;46.38;95764.94;10473490;28;2779;-58
2024/04/06 01:09:24;;;;;;;;;;;;;;;20.99;46.40;95752.84;10476941;28;2835;-58
2024/04/06 01:14:25;;;;;;;;;;;;;;;20.98;46.11;95751.25;10458215;28;2775;-58
2024/04/06 01:19:25;;;;;;;;;;;;;;;20.98;46.23;95756.53;10478745;28;2829;-59
2024/04/06 01:24:25;;;;;;;;;;;;;;;20.97;46.29;95757.59;10490346;28;2732;-58
2024/04/06 01:29:26;;;;;;;;;;;;;;;20.97;46.12;95756.81;10472578;28;2769;-58
2024/04/06 01:34:26;;;;;;;;;;;;;;;20.96;46.27;95750.75;10455442;28;2655;-58
2024/04/06 01:39:26;;;;;;;;;;;;;;;20.96;46.10;95747.31;10463175;28;2556;-58
2024/04/06 01:44:27;;;;;;;;;;;;;;;20.96;45.98;95749.94;10474927;28;2361;-58
2024/04/06 01:49:27;;;;;;;;;;;;;;;20.96;46.03;95749.94;10459658;28;2706;-58
2024/04/06 01:54:27;;;;;;;;;;;;;;;20.94;45.80;95755.50;10454216;28;2754;-58
2024/04/06 01:59:29;;;;;;;;;;;;;;;20.95;46.12;95761.56;10473044;28;2578;-59
2024/04/06 02:04:29;;;;;;;;;;;;;;;20.94;46.04;95763.41;10457796;28;2553;-58
2024/04/06 02:09:29;;;;;;;;;;;;;;;20.94;45.90;95773.94;10454614;28;2865;-58
2024/04/06 02:14:30;;;;;;;;;;;;;;;20.93;45.71;95771.59;10469157;28;2865;-58
2024/04/06 02:19:30;;;;;;;;;;;;;;;20.92;45.70;95776.06;10464858;28;2769;-58
2024/04/06 02:24:30;;;;;;;;;;;;;;;20.92;45.88;95783.97;10453150;28;2846;-59
2024/04/06 02:29:31;;;;;;;;;;;;;;;20.92;45.80;95775.28;10469151;28;2573;-58
2024/04/06 02:34:31;;;;;;;;;;;;;;;20.92;45.98;95778.72;10458612;28;2758;-58
2024/04/06 02:39:31;;;;;;;;;;;;;;;20.92;45.58;95772.66;10468692;28;2817;-58
2024/04/06 02:44:32;;;;;;;;;;;;;;;20.92;45.91;95777.91;10464844;28;2572;-58
2024/04/06 02:49:32;;;;;;;;;;;;;;;20.91;45.87;95785.06;10454257;28;2834;-59
2024/04/06 02:54:33;;;;;;;;;;;;;;;20.90;45.49;95769.50;10476289;28;2802;-59
2024/04/06 02:59:33;;;;;;;;;;;;;;;20.90;45.64;95778.19;10452945;28;2551;-59
2024/04/06 03:04:34;;;;;;;;;;;;;;;20.89;45.71;95787.19;10475536;28;2802;-58
2024/04/06 03:09:35;;;;;;;;;;;;;;;20.90;45.46;95790.56;10459008;28;2734;-58
2024/04/06 03:14:36;;;;;;;;;;;;;;;20.89;45.34;95789.81;10472343;28;2735;-59
2024/04/06 03:19:36;;;;;;;;;;;;;;;20.89;45.41;95800.34;10476428;28;2805;-58
2024/04/06 03:24:36;;;;;;;;;;;;;;;20.89;45.41;95805.63;10467225;28;2858;-59
2024/04/06 03:29:37;;;;;;;;;;;;;;;20.89;45.37;95805.63;10456351;28;2552;-59
2024/04/06 03:34:37;;;;;;;;;;;;;;;20.88;45.52;95804.03;10474270;28;2686;-58
2024/04/06 03:39:37;;;;;;;;;;;;;;;20.88;45.33;95796.13;10460031;28;2648;-58
2024/04/06 03:44:39;;;;;;;;;;;;;;;20.87;45.24;95799.84;10440150;28;2699;-59
2024/04/06 03:49:40;;;;;;;;;;;;;;;20.87;45.23;95802.47;10476178;28;2861;-59
2024/04/06 03:54:41;;;;;;;;;;;;;;;20.86;45.21;95803.53;10476228;28;2703;-58
2024/04/06 03:59:41;;;;;;;;;;;;;;;20.86;45.35;95800.88;10458248;28;2798;-59
2024/04/06 04:04:41;;;;;;;;;;;;;;;20.86;45.14;95800.09;10454587;28;2656;-58
2024/04/06 04:09:42;;;;;;;;;;;;;;;20.86;45.25;95802.72;10451950;28;2879;-58
2024/04/06 04:14:42;;;;;;;;;;;;;;;20.85;45.14;95790.63;10472997;28;2908;-58
2024/04/06 04:19:42;;;;;;;;;;;;;;;20.85;44.88;95790.63;10456199;28;2746;-58
2024/04/06 04:24:42;;;;;;;;;;;;;;;20.84;45.15;95787.19;10469930;28;2758;-58
2024/04/06 04:29:43;;;;;;;;;;;;;;;20.84;45.10;95781.13;10455611;28;2904;-58
2024/04/06 04:34:43;;;;;;;;;;;;;;;20.84;44.96;95787.19;10470651;28;2606;-58
2024/04/06 04:39:43;;;;;;;;;;;;;;;20.83;44.90;95784.84;10457472;28;2765;-58
2024/04/06 04:44:44;;;;;;;;;;;;;;;20.82;45.10;95791.97;10452707;28;2976;-59
2024/04/06 04:49:44;;;;;;;;;;;;;;;20.82;44.71;95791.97;10475835;28;2646;-58
2024/04/06 04:54:44;;;;;;;;;;;;;;;20.82;44.93;95802.50;10469179;28;2727;-58
2024/04/06 04:59:44;;;;;;;;;;;;;;;20.81;44.59;95808.03;10459620;28;2754;-59
2024/04/06 05:04:45;;;;;;;;;;;;;;;20.81;44.90;95808.81;10450601;28;2816;-58
2024/04/06 05:09:46;;;;;;;;;;;;;;;20.80;44.73;95801.19;10458711;28;2753;-58
2024/04/06 05:14:47;;;;;;;;;;;;;;;20.80;44.63;95815.16;10447271;28;2720;-58
2024/04/06 05:19:47;;;;;;;;;;;;;;;20.79;44.78;95818.84;10459264;28;2821;-58
2024/04/06 05:24:48;;;;;;;;;;;;;;;20.78;44.58;95825.19;10486319;28;2780;-58
2024/04/06 05:29:48;;;;;;;;;;;;;;;20.79;44.71;95834.63;10485445;28;2763;-58
2024/04/06 05:34:49;;;;;;;;;;;;;;;20.78;44.51;95830.44;10474600;28;2755;-58
2024/04/06 05:39:49;;;;;;;;;;;;;;;20.78;44.41;95840.97;10470917;28;2765;-59
2024/04/06 05:44:49;;;;;;;;;;;;;;;20.78;44.27;95842.81;10453073;28;2751;-58
2024/04/06 05:49:50;;;;;;;;;;;;;;;20.76;44.70;95842.31;10451885;28;2739;-58
2024/04/06 05:54:50;;;;;;;;;;;;;;;20.76;44.37;95848.38;10467007;28;2826;-58
2024/04/06 05:59:50;;;;;;;;;;;;;;;20.76;44.62;95848.38;10451485;28;3011;-58
2024/04/06 06:04:50;;;;;;;;;;;;;;;20.75;44.29;95840.75;10467364;28;2711;-58
2024/04/06 06:09:51;;;;;;;;;;;;;;;20.75;44.43;95849.41;10450595;28;2716;-58
2024/04/06 06:14:51;;;;;;;;;;;;;;;20.75;44.52;95856.56;10465660;28;2611;-58
2024/04/06 06:19:52;;;;;;;;;;;;;;;20.77;44.48;95859.69;10470355;28;2870;-59
2024/04/06 06:24:52;;;;;;;;;;;;;;;20.77;44.83;95857.06;10460719;28;2558;-58
2024/04/06 06:29:52;;;;;;;;;;;;;;;20.80;45.16;95865.22;10474276;28;2577;-58
2024/04/06 06:34:52;;;;;;;;;;;;;;;20.83;45.48;95866.53;10480079;28;2745;-61
2024/04/06 06:39:53;;;;;;;;;;;;;;;20.85;45.57;95867.03;10477933;28;2482;-58
2024/04/06 06:44:53;;;;;;;;;;;;;;;20.86;45.73;95865.97;10462972;28;2826;-58
2024/04/06 06:49:54;;;;;;;;;;;;;;;20.87;45.89;95865.72;10462421;28;2861;-58
2024/04/06 06:54:54;;;;;;;;;;;;;;;20.90;46.12;95869.63;10470804;28;2812;-58
2024/04/06 06:59:54;;;;;;;;;;;;;;;20.89;45.85;95865.44;10457873;28;2997;-58
2024/04/06 07:04:55;;;;;;;;;;;;;;;20.88;45.78;95856.72;10459866;28;2794;-59
2024/04/06 07:09:55;;;;;;;;;;;;;;;20.88;45.66;95861.19;10455820;28;2769;-58
2024/04/06 07:14:55;;;;;;;;;;;;;;;20.87;45.56;95863.06;10468506;28;2800;-59
2024/04/06 07:19:55;;;;;;;;;;;;;;;20.86;45.46;95858.06;10453236;28;2779;-58
2024/04/06 07:24:56;;;;;;;;;;;;;;;20.86;45.64;95866.75;10445052;28;2894;-58
2024/04/06 07:29:56;;;;;;;;;;;;;;;20.86;45.75;95863.31;10435256;28;2940;-58
2024/04/06 07:34:56;;;;;;;;;;;;;;;20.85;45.68;95872.31;10450324;28;2928;-57
2024/04/06 07:39:57;;;;;;;;;;;;;;;20.85;45.67;95878.38;10472419;28;2684;-57
2024/04/06 07:44:57;;;;;;;;;;;;;;;20.85;45.44;95872.31;10464624;28;2363;-58
2024/04/06 07:49:57;;;;;;;;;;;;;;;20.85;45.61;95877.56;10455332;28;2817;-58
2024/04/06 07:54:57;;;;;;;;;;;;;;;20.84;45.58;95876.78;10456308;28;2971;-58
2024/04/06 07:59:58;;;;;;;;;;;;;;;20.85;45.76;95865.19;10466744;28;2998;-58
2024/04/06 08:04:58;;;;;;;;;;;;;;;20.86;46.46;95863.31;10447651;28;2705;-58
2024/04/06 08:09:58;;;;;;;;;;;;;;;20.90;47.36;95859.88;10472005;28;2798;-58
2024/04/06 08:14:59;;;;;;;;;;;;;;;20.92;46.69;95865.66;10442441;28;2808;-58
2024/04/06 08:19:59;;;;;;;;;;;;;;;20.93;46.91;95869.09;10474382;28;2903;-58
2024/04/06 08:24:59;;;;;;;;;;;;;;;20.92;45.55;95865.66;10467972;28;2569;-58
2024/04/06 08:30:00;;;;;;;;;;;;;;;20.91;44.97;95871.22;10433770;28;2762;-58
2024/04/06 08:35:00;;;;;;;;;;;;;;;20.89;44.48;95868.84;10452343;28;2651;-59
2024/04/06 08:40:00;;;;;;;;;;;;;;;20.89;43.90;95878.59;10445874;28;2770;-57
2024/04/06 08:45:01;;;;;;;;;;;;;;;20.88;43.63;95880.44;10457472;28;2587;-59
2024/04/06 08:50:07;;;;;;;;;;;;;;;20.88;43.14;95888.34;10439331;28;2808;-59
2024/04/06 08:55:09;;;;;;;;;;;;;;;20.87;42.96;95889.41;10449369;28;2871;-59
2024/04/06 09:00:12;;;;;;;;;;;;;;;20.87;42.54;95886.78;10452559;28;2537;-60
2024/04/06 09:05:12;;;;;;;;;;;;;;;20.87;42.39;95886.00;10484880;28;2524;-59
2024/04/06 09:10:12;;;;;;;;;;;;;;;20.87;41.88;95892.06;10468949;28;2576;-59
2024/04/06 09:15:15;;;;;;;;;;;;;;;20.87;41.76;95897.31;10448100;28;2830;-59
2024/04/06 09:20:15;;;;;;;;;;;;;;;20.88;41.94;95887.56;10448808;28;2497;-60
2024/04/06 09:25:15;;;;;;;;;;;;;;;20.89;41.84;95889.16;10461242;28;2853;-59
2024/04/06 09:30:15;;;;;;;;;;;;;;;20.90;41.90;95880.97;10447202;28;2798;-59
2024/04/06 09:35:16;;;;;;;;;;;;;;;20.89;41.43;95882.03;10448864;28;2833;-59
2024/04/06 09:40:16;;;;;;;;;;;;;;;20.90;41.28;95867.78;10448332;28;2735;-60
2024/04/06 09:45:17;;;;;;;;;;;;;;;20.90;40.99;95859.09;10470882;28;2701;-61
2024/04/06 09:50:17;;;;;;;;;;;;;;;20.90;40.15;95859.88;10437440;28;2581;-59
2024/04/06 09:55:17;;;;;;;;;;;;;;;20.91;40.27;95868.56;10442474;28;2918;-59
2024/04/06 10:00:18;;;;;;;;;;;;;;;20.92;40.02;95864.88;10443071;28;2856;-59
2024/04/06 10:05:18;;;;;;;;;;;;;;;20.92;39.68;95868.31;10456845;28;2864;-59
2024/04/06 10:10:18;;;;;;;;;;;;;;;20.93;40.36;95864.63;10453084;28;2843;-59
2024/04/06 10:15:19;;;;;;;;;;;;;;;20.93;40.70;95863.81;10453793;28;2788;-59
2024/04/06 10:20:20;;;;;;;;;;;;;;;20.94;41.17;95857.47;10474779;28;2816;-59
2024/04/06 10:25:26;;;;;;;;;;;;;;;20.97;41.62;95855.09;10466235;28;2615;-60
2024/04/06 10:30:27;;;;;;;;;;;;;;;20.99;41.98;95858.25;10473093;28;2734;-59
2024/04/06 10:35:27;;;;;;;;;;;;;;;21.00;42.33;95854.53;10461776;28;2593;-60
2024/04/06 10:40:28;;;;;;;;;;;;;;;21.02;42.48;95857.72;10449907;28;2820;-60
2024/04/06 10:45:28;;;;;;;;;;;;;;;21.05;42.74;95859.81;10453689;28;2911;-62
2024/04/06 10:50:28;;;;;;;;;;;;;;;21.05;43.35;95857.19;10475053;28;2730;-60
2024/04/06 10:55:28;;;;;;;;;;;;;;;21.08;43.12;95856.63;10449571;28;2800;-60
2024/04/06 11:00:30;;;;;;;;;;;;;;;21.10;43.39;95848.47;10466663;28;2850;-60
2024/04/06 11:05:30;;;;;;;;;;;;;;;21.12;43.55;95845.56;10471099;28;2794;-61
2024/04/06 11:10:31;;;;;;;;;;;;;;;21.12;43.60;95846.34;10453236;28;2599;-60
2024/04/06 11:15:31;;;;;;;;;;;;;;;21.13;43.88;95845.25;10479037;28;2813;-61
2024/04/06 11:20:32;;;;;;;;;;;;;;;21.15;44.17;95840.50;10470396;28;2915;-60
2024/04/06 11:25:39;;;;;;;;;;;;;;;21.16;44.57;95834.19;10470378;28;2736;-60
2024/04/06 11:30:41;;;;;;;;;;;;;;;21.18;44.46;95828.63;10471743;28;2871;-60
2024/04/06 11:35:41;;;;;;;;;;;;;;;21.18;44.45;95824.16;10453534;28;2582;-60
2024/04/06 11:40:48;;;;;;;;;;;;;;;21.18;44.73;95818.09;10451489;28;2587;-60
2024/04/06 11:45:49;;;;;;;;;;;;;;;21.19;44.80;95822.28;10455436;28;2812;-60
2024/04/06 11:50:49;;;;;;;;;;;;;;;21.21;44.94;95822.78;10475891;28;2826;-60
2024/04/06 11:55:52;;;;;;;;;;;;;;;21.21;45.16;95812.25;10471641;28;2802;-61
2024/04/06 12:00:52;;;;;;;;;;;;;;;21.21;45.42;95814.88;10479639;28;2900;-62
2024/04/06 12:05:52;;;;;;;;;;;;;;;21.23;45.17;95812.75;10468157;28;2821;-60
2024/04/06 12:10:53;;;;;;;;;;;;;;;21.23;45.35;95807.50;10450449;28;2872;-61
2024/04/06 12:15:53;;;;;;;;;;;;;;;21.23;45.62;95810.91;10454864;28;2864;-59
2024/04/06 12:20:53;;;;;;;;;;;;;;;21.25;45.37;95814.06;10454500;28;2871;-60
2024/04/06 12:25:54;;;;;;;;;;;;;;;21.26;45.71;95804.31;10466444;28;2959;-60
2024/04/06 12:30:54;;;;;;;;;;;;;;;21.28;45.82;95804.81;10449284;28;2871;-60
2024/04/06 12:35:54;;;;;;;;;;;;;;;21.28;45.90;95797.72;10468833;28;2861;-60
2024/04/06 12:40:55;;;;;;;;;;;;;;;21.29;46.02;95804.53;10449453;28;2565;-60
2024/04/06 12:45:55;;;;;;;;;;;;;;;21.31;46.00;95796.38;10469457;28;2848;-60
2024/04/06 12:50:56;;;;;;;;;;;;;;;21.31;45.68;95797.13;10436392;28;2793;-60
2024/04/06 12:55:56;;;;;;;;;;;;;;;21.31;45.97;95786.59;10468478;28;2789;-61
2024/04/06 13:00:56;;;;;;;;;;;;;;;21.32;45.90;95787.38;10451017;28;2781;-60
2024/04/06 13:06:02;;;;;;;;;;;;;;;21.32;45.83;95787.38;10468962;28;2829;-60
2024/04/06 13:11:02;;;;;;;;;;;;;;;21.32;45.75;95782.13;10464672;28;2860;-60
2024/04/06 13:16:04;;;;;;;;;;;;;;;21.31;45.68;95776.03;10446687;28;2782;-60
2024/04/06 13:21:05;;;;;;;;;;;;;;;21.34;45.91;95774.72;10463673;28;2794;-60
2024/04/06 13:26:05;;;;;;;;;;;;;;;21.34;46.21;95772.88;10466643;28;2798;-60
2024/04/06 13:31:07;;;;;;;;;;;;;;;21.34;46.04;95761.53;10449804;28;2813;-60
2024/04/06 13:36:08;;;;;;;;;;;;;;;21.35;46.12;95766.53;10462285;28;2933;-60
2024/04/06 13:41:08;;;;;;;;;;;;;;;21.35;46.02;95757.84;10463474;28;2746;-60
2024/04/06 13:46:08;;;;;;;;;;;;;;;21.36;45.88;95751.50;10449539;28;2895;-60
2024/04/06 13:51:08;;;;;;;;;;;;;;;21.35;46.00;95752.56;10469753;28;2781;-60
2024/04/06 13:56:09;;;;;;;;;;;;;;;21.36;46.11;95746.22;10465807;28;2808;-60
2024/04/06 14:01:11;;;;;;;;;;;;;;;21.36;46.38;95746.22;10450061;28;2801;-60
2024/04/06 14:06:12;;;;;;;;;;;;;;;21.38;46.14;95738.81;10453567;28;2719;-60
2024/04/06 14:11:12;;;;;;;;;;;;;;;21.38;46.08;95738.81;10445227;28;2852;-58
2024/04/06 14:16:12;;;;;;;;;;;;;;;21.38;46.13;95738.81;10449297;28;3005;-60
2024/04/06 14:21:13;;;;;;;;;;;;;;;21.38;46.20;95744.09;10449623;28;2808;-60
2024/04/06 14:26:14;;;;;;;;;;;;;;;21.37;46.27;95737.25;10450596;28;2863;-59
2024/04/06 14:31:14;;;;;;;;;;;;;;;21.37;46.22;95738.03;10453091;28;2861;-60
2024/04/06 14:36:14;;;;;;;;;;;;;;;21.38;46.41;95739.59;10431139;28;2885;-60
2024/04/06 14:41:14;;;;;;;;;;;;;;;21.39;46.49;95735.13;10480267;28;2820;-60
2024/04/06 14:46:15;;;;;;;;;;;;;;;21.38;46.29;95713.25;10427287;28;2818;-60
2024/04/06 14:51:15;;;;;;;;;;;;;;;21.39;46.36;95708.75;10461559;28;2848;-61
2024/04/06 14:56:15;;;;;;;;;;;;;;;21.38;46.20;95713.25;10467605;28;2718;-60
2024/04/06 15:01:16;;;;;;;;;;;;;;;21.38;46.14;95715.09;10467076;28;2857;-60
2024/04/06 15:06:16;;;;;;;;;;;;;;;21.38;46.44;95702.69;10465439;28;2953;-60
2024/04/06 15:11:17;;;;;;;;;;;;;;;21.39;46.25;95703.50;10457503;28;2781;-60
2024/04/06 15:16:17;;;;;;;;;;;;;;;21.41;46.23;95706.63;10457907;28;2784;-60
2024/04/06 15:21:17;;;;;;;;;;;;;;;21.38;46.27;95697.41;10484459;28;2745;-60
2024/04/06 15:26:18;;;;;;;;;;;;;;;21.38;46.25;95692.16;10457464;28;2805;-60
2024/04/06 15:31:18;;;;;;;;;;;;;;;21.39;46.28;95682.38;10451436;28;2984;-60
2024/04/06 15:36:18;;;;;;;;;;;;;;;21.40;46.27;95681.31;10442882;28;2839;-60
2024/04/06 15:41:19;;;;;;;;;;;;;;;21.40;46.49;95673.41;10455585;28;2703;-60
2024/04/06 15:46:19;;;;;;;;;;;;;;;21.40;46.47;95673.41;10465453;28;2526;-59
2024/04/06 15:51:20;;;;;;;;;;;;;;;21.40;46.49;95679.47;10439968;28;2586;-60
2024/04/06 15:56:20;;;;;;;;;;;;;;;21.39;46.16;95683.16;10471760;28;2773;-59
2024/04/06 16:01:20;;;;;;;;;;;;;;;21.40;46.20;95678.66;10466006;28;2957;-60
2024/04/06 16:06:21;;;;;;;;;;;;;;;21.42;46.30;95689.72;10458966;28;2815;-60
2024/04/06 16:11:22;;;;;;;;;;;;;;;21.41;46.41;95690.81;10451365;28;2936;-59
2024/04/06 16:16:22;;;;;;;;;;;;;;;21.40;46.20;95689.22;10484748;28;2788;-60
2024/04/06 16:21:23;;;;;;;;;;;;;;;21.41;46.29;95694.22;10482895;28;2761;-60
2024/04/06 16:26:23;;;;;;;;;;;;;;;21.41;46.32;95685.53;10454000;28;2765;-60
2024/04/06 16:31:23;;;;;;;;;;;;;;;21.41;46.45;95686.28;10449273;28;2809;-61
2024/04/06 16:36:24;;;;;;;;;;;;;;;21.41;46.30;95688.94;10434488;28;2770;-60
2024/04/06 16:41:24;;;;;;;;;;;;;;;21.41;46.44;95674.97;10450664;28;2808;-60
2024/04/06 16:46:24;;;;;;;;;;;;;;;21.41;46.49;95667.06;10483983;28;2567;-60
2024/04/06 16:51:24;;;;;;;;;;;;;;;21.42;46.30;95660.72;10466085;28;2856;-60
2024/04/06 16:56:26;;;;;;;;;;;;;;;21.42;46.48;95650.16;10450111;28;2848;-60
2024/04/06 17:01:26;;;;;;;;;;;;;;;21.42;46.34;95660.72;10451191;28;2909;-60
2024/04/06 17:06:26;;;;;;;;;;;;;;;21.42;46.34;95660.72;10453125;28;2769;-60
2024/04/06 17:11:28;;;;;;;;;;;;;;;21.42;46.31;95644.91;10466078;28;2798;-60
2024/04/06 17:16:28;;;;;;;;;;;;;;;21.42;46.46;95656.25;10451346;28;2869;-61
2024/04/06 17:21:29;;;;;;;;;;;;;;;21.42;46.36;95647.53;10466105;28;2749;-60
2024/04/06 17:26:29;;;;;;;;;;;;;;;21.43;46.58;95660.44;10472131;28;2551;-60
2024/04/06 17:31:29;;;;;;;;;;;;;;;21.44;46.47;95648.03;10448947;28;2898;-60
2024/04/06 17:36:29;;;;;;;;;;;;;;;21.45;46.39;95653.03;10447350;28;2633;-60
2024/04/06 17:41:30;;;;;;;;;;;;;;;21.47;46.72;95668.59;10461737;28;2859;-60
2024/04/06 17:46:31;;;;;;;;;;;;;;;21.46;46.37;95669.63;10452300;28;2796;-60
2024/04/06 17:51:32;;;;;;;;;;;;;;;21.46;46.65;95667.00;10447050;28;2973;-60
2024/04/06 17:56:32;;;;;;;;;;;;;;;21.44;46.36;95664.66;10427751;28;2754;-60
2024/04/06 18:01:32;;;;;;;;;;;;;;;21.45;46.72;95662.81;10447414;28;2826;-60
2024/04/06 18:06:32;;;;;;;;;;;;;;;21.45;46.78;95665.44;10463271;28;2818;-60
2024/04/06 18:11:33;;;;;;;;;;;;;;;21.45;46.44;95666.22;10450521;28;2879;-60
2024/04/06 18:16:33;;;;;;;;;;;;;;;21.44;46.76;95674.41;10464786;28;2742;-60
2024/04/06 18:21:33;;;;;;;;;;;;;;;21.44;46.51;95682.31;10478786;28;2581;-60
2024/04/06 18:26:33;;;;;;;;;;;;;;;21.44;46.39;95680.47;10455063;28;2901;-60
2024/04/06 18:31:35;;;;;;;;;;;;;;;21.44;46.42;95690.22;10472106;28;2787;-60
2024/04/06 18:36:36;;;;;;;;;;;;;;;21.43;46.44;95691.31;10472239;28;2727;-60
2024/04/06 18:41:36;;;;;;;;;;;;;;;21.43;46.77;95689.44;10450519;28;2919;-60
2024/04/06 18:46:36;;;;;;;;;;;;;;;21.43;46.76;95701.84;10465829;28;2844;-60
2024/04/06 18:51:37;;;;;;;;;;;;;;;21.43;46.72;95699.22;10471862;28;2845;-60
2024/04/06 18:56:37;;;;;;;;;;;;;;;21.43;46.50;95702.63;10462723;28;2796;-60
2024/04/06 19:01:37;;;;;;;;;;;;;;;21.43;46.68;95704.50;10457035;28;2798;-60
2024/04/06 19:06:38;;;;;;;;;;;;;;;21.42;46.69;95719.53;10469576;28;2782;-60
2024/04/06 19:11:38;;;;;;;;;;;;;;;21.43;46.38;95721.09;10464137;28;2572;-59
2024/04/06 19:16:38;;;;;;;;;;;;;;;21.42;46.54;95716.09;10460886;28;2968;-60
2024/04/06 19:21:39;;;;;;;;;;;;;;;21.43;46.60;95725.59;10465125;28;2841;-60
2024/04/06 19:26:39;;;;;;;;;;;;;;;21.42;46.23;95716.09;10468491;28;2816;-61
2024/04/06 19:31:39;;;;;;;;;;;;;;;21.42;46.36;95724.00;10437235;28;2780;-59
2024/04/06 19:36:39;;;;;;;;;;;;;;;21.41;46.34;95731.13;10453465;28;2865;-60
2024/04/06 19:41:40;;;;;;;;;;;;;;;21.42;46.32;95726.66;10470769;28;2796;-59
2024/04/06 19:46:40;;;;;;;;;;;;;;;21.39;46.11;95720.06;10451810;28;2706;-59
2024/04/06 19:51:40;;;;;;;;;;;;;;;21.40;46.28;95715.59;10476777;28;2762;-59
2024/04/06 19:56:41;;;;;;;;;;;;;;;21.40;45.86;95705.84;10453973;28;2329;-58
2024/04/06 20:01:41;;;;;;;;;;;;;;;21.39;45.82;95721.94;10469876;28;2778;-59
2024/04/06 20:06:41;;;;;;;;;;;;;;;21.36;45.42;95719.84;10452090;28;2824;-60
2024/04/06 20:11:41;;;;;;;;;;;;;;;21.33;45.13;95717.78;10476355;28;2676;-60
2024/04/06 20:16:42;;;;;;;;;;;;;;;21.29;44.90;95719.41;10455889;28;2883;-59
2024/04/06 20:21:51;;;;;;;;;;;;;;;21.25;44.62;95715.72;10468080;28;2778;-59
2024/04/06 20:26:52;;;;;;;;;;;;;;;21.22;44.25;95718.94;10463625;28;2734;-60
2024/04/06 20:31:52;;;;;;;;;;;;;;;21.18;43.66;95715.28;10439116;28;2766;-60
2024/04/06 20:36:52;;;;;;;;;;;;;;;21.14;43.36;95722.19;10469975;28;2552;-60
2024/04/06 20:41:53;;;;;;;;;;;;;;;21.12;43.16;95732.22;10455142;28;2568;-59
2024/04/06 20:46:53;;;;;;;;;;;;;;;21.11;43.01;95738.53;10480268;28;2737;-59
2024/04/06 20:51:53;;;;;;;;;;;;;;;21.13;43.18;95733.78;10485468;28;2999;-59
2024/04/06 20:56:53;;;;;;;;;;;;;;;21.15;43.17;95739.53;10449373;28;2770;-60
2024/04/06 21:01:54;;;;;;;;;;;;;;;21.18;43.09;95744.28;10463939;28;2820;-60
2024/04/06 21:06:54;;;;;;;;;;;;;;;21.19;43.36;95737.94;10453654;28;2860;-60
2024/04/06 21:11:54;;;;;;;;;;;;;;;21.20;43.12;95745.59;10450685;28;2802;-60
2024/04/06 21:16:56;;;;;;;;;;;;;;;21.21;43.04;95744.50;10462457;28;2869;-59
2024/04/06 21:21:56;;;;;;;;;;;;;;;21.22;43.19;95735.53;10465836;28;2920;-60
2024/04/06 21:26:57;;;;;;;;;;;;;;;21.24;43.29;95737.91;10461435;28;2777;-60
2024/04/06 21:31:57;;;;;;;;;;;;;;;21.24;43.29;95727.34;10462368;28;2827;-60
2024/04/06 21:36:57;;;;;;;;;;;;;;;21.25;43.13;95729.69;10430873;28;2936;-60
2024/04/06 21:41:57;;;;;;;;;;;;;;;21.26;43.33;95730.50;10448406;28;2822;-59
2024/04/06 21:46:58;;;;;;;;;;;;;;;21.27;43.40;95732.09;10464808;28;2745;-59
2024/04/06 21:51:58;;;;;;;;;;;;;;;21.28;43.37;95736.28;10447930;28;2894;-59
2024/04/06 21:56:59;;;;;;;;;;;;;;;21.27;43.46;95730.22;10452557;28;2620;-60
2024/04/06 22:02:00;;;;;;;;;;;;;;;21.28;43.43;95733.63;10479773;28;2849;-60
2024/04/06 22:07:00;;;;;;;;;;;;;;;21.28;43.68;95733.63;10463556;28;2793;-59
2024/04/06 22:12:01;;;;;;;;;;;;;;;21.28;43.81;95734.44;10477788;28;2587;-60
2024/04/06 22:17:01;;;;;;;;;;;;;;;21.28;43.69;95739.72;10491401;28;2673;-60
2024/04/06 22:22:01;;;;;;;;;;;;;;;21.28;43.59;95731.78;10464276;28;2796;-60
2024/04/06 22:27:01;;;;;;;;;;;;;;;21.30;43.48;95728.88;10466195;28;2877;-59
2024/04/06 22:32:02;;;;;;;;;;;;;;;21.31;43.68;95730.47;10476435;28;2778;-59
2024/04/06 22:37:03;;;;;;;;;;;;;;;21.29;43.80;95730.72;10462004;28;2777;-59
2024/04/06 22:42:04;;;;;;;;;;;;;;;21.30;43.53;95731.50;10460601;28;2822;-59
2024/04/06 22:47:04;;;;;;;;;;;;;;;21.30;43.51;95729.66;10483242;28;2818;-59
2024/04/06 22:52:04;;;;;;;;;;;;;;;21.30;43.45;95726.25;10473933;28;2709;-60
2024/04/06 22:57:05;;;;;;;;;;;;;;;21.29;43.81;95724.69;10476598;28;2762;-59
2024/04/06 23:02:05;;;;;;;;;;;;;;;21.30;43.59;95734.16;10448254;28;2771;-59
2024/04/06 23:07:05;;;;;;;;;;;;;;;21.29;43.54;95719.41;10462200;28;2873;-59
2024/04/06 23:12:06;;;;;;;;;;;;;;;21.30;43.65;95715.69;10454338;28;2767;-59
2024/04/06 23:17:07;;;;;;;;;;;;;;;21.30;43.57;95726.25;10437336;28;2798;-60
2024/04/06 23:22:07;;;;;;;;;;;;;;;21.30;43.68;95727.03;10468666;28;2803;-60
2024/04/06 23:27:10;;;;;;;;;;;;;;;21.31;43.36;95727.81;10447103;28;2785;-59
2024/04/06 23:32:10;;;;;;;;;;;;;;;21.30;43.51;95728.88;10456257;28;2866;-59
2024/04/06 23:37:10;;;;;;;;;;;;;;;21.30;43.64;95728.88;10440540;28;2778;-60
2024/04/06 23:42:12;;;;;;;;;;;;;;;21.29;43.38;95722.81;10453094;28;2589;-60
2024/04/06 23:47:12;;;;;;;;;;;;;;;21.29;43.67;95722.81;10441631;28;2847;-60
2024/04/06 23:52:13;;;;;;;;;;;;;;;21.29;43.68;95719.41;10455007;28;2706;-59
2024/04/06 23:57:13;;;;;;;;;;;;;;;21.30;43.36;95720.97;10459069;28;2815;-60
